Hovedside
METAR-TAF:

METAR-TAF

Lufthavner :

Pskov, Russland

breddegrad: 57-47-06N, lengdegrad: 028-23-54E, høyde over havet: 47 m

Gjeldene værobservasjon

Denne rapporten ble laget for 42 minutter siden, klokken 18:00 UTC
Vind 8 kt fra Øst
Temperatur 14°C
Luftfuktighet 72%
Trykk 1026 hPa
Sikt: 9000 m

METAR: ULOO 221800Z AUTO 09004MPS 9000 // NCD 14/09 Q1026 RMK QFE765

Tid: 21:42 (18:42 UTC)

Varsel

Denne rapporten ble laget for 4 timer og 43 minutter siden, klokken 13:59 UTC
Varsel gyldig fra 22. klokken 15 UTC til 22. klokken 24 UTC
Vind 6 kt fra Øst-sørøst med vindkast opp mot 16 kt
Sikt: 6000 m
Spredte skyer i en høyde av 2000 ft
Midlertidig
fra 22. klokken 20 UTC til 22. klokken 24 UTC
Sikt: 2000 m
dis

TAF: ULOO 221359Z 2215/2224 11003G08MPS 6000 SCT020 TEMPO 2220/2224 2000 BR

Værobservasjoner og værvarsel for over 4000 flyplasser (METAR- og TAF-rapporter).

Tilgjengelige stasjoner er representert av de røde og gule prikkene på kartet.

Hold musepekeren over prikken for å se navnet på stasjonen.

Klikk så for å se værobservasjoner og -varsler.

For å forandre kartet kan du klikke på den grønne knappen med svart kryss for å zoome inn, på den grønne knappen med strek for å zoome ut, eller på de grønne pilene for å se tilstøtende kart.


METAR-TAF: